PWSweather.com
Personal Weather Stations
Station Observations
RYAN1946
Layla Drive, Medford, OR 97501

Layla DriveMedford, OR 97501

Lat: 42.31, Lon: -122.9

Elevation: 1491

Station Type:

http://www.ryanweather.com

High Low Average
Temperature 64.7°F18.2°C 44.4°F6.9°C 54.2°F12.3°C
Dew Point 49.4°F9.7°C 41.9°F5.5°C 45.8°F7.7°C
Winds 10.8 mph 17.4 kmh Calm Calm 2.0 mph SW3.2 kmh SW
Wind Gusts 15.0 mph24.1 kmh -- 3.0 mph4.8 kmh
Humidity 92% 49% 75%
Pressure 30.11 in1019.6 mb 29.98 in1015.2 mb -
Precipitation 0.00 in0.0 mm - -
Hour Temp Dew Point Humidity Winds Wind Gusts Pressure Precip Precip Rate Daily Precip Total
12:00 AM 54.5°F12.5°C 48.1°F8.9°C 79% 0.5 mph SW0.8 kmh SW 1.0 mph1.6 kmh 29.98 in1015.2 mb 0.00 in0.0 mm 0.00 in/hr0.0 mm/hr 0.00 in0.0 mm
12:10 AM 53.8°F12.1°C 48.1°F8.9°C 81% Calm Calm -- 29.98 in1015.2 mb 0.00 in0.0 mm 0.00 in/hr0.0 mm/hr 0.00 in0.0 mm
12:20 AM 53.5°F11.9°C 48.1°F8.9°C 82% 0.2 mph SW0.3 kmh SW 1.0 mph1.6 kmh 29.98 in1015.2 mb 0.00 in0.0 mm 0.00 in/hr0.0 mm/hr 0.00 in0.0 mm
12:30 AM 52.9°F11.6°C 47.6°F8.7°C 82% 1.3 mph SW2.1 kmh SW 2.0 mph3.2 kmh 29.98 in1015.2 mb 0.00 in0.0 mm 0.00 in/hr0.0 mm/hr 0.00 in0.0 mm
12:40 AM 52.3°F11.3°C 47.3°F8.5°C 83% 0.7 mph SW1.1 kmh SW 1.0 mph1.6 kmh 29.98 in1015.2 mb 0.00 in0.0 mm 0.00 in/hr0.0 mm/hr 0.00 in0.0 mm
12:50 AM 52.2°F11.2°C 47.2°F8.4°C 83% Calm Calm -- 29.98 in1015.2 mb 0.00 in0.0 mm 0.00 in/hr0.0 mm/hr 0.00 in0.0 mm
01:00 AM 52.0°F11.1°C 47.0°F8.3°C 83% 0.1 mph SW0.2 kmh SW 2.0 mph3.2 kmh 29.98 in1015.2 mb 0.00 in0.0 mm 0.00 in/hr0.0 mm/hr 0.00 in0.0 mm
01:10 AM 51.6°F10.9°C 46.6°F8.1°C 83% 0.6 mph SSW1.0 kmh SSW 1.0 mph1.6 kmh 29.98 in1015.2 mb 0.00 in0.0 mm 0.00 in/hr0.0 mm/hr 0.00 in0.0 mm
01:20 AM 51.6°F10.9°C 46.9°F8.3°C 84% 0.5 mph SSW0.8 kmh SSW 1.0 mph1.6 kmh 29.98 in1015.2 mb 0.00 in0.0 mm 0.00 in/hr0.0 mm/hr 0.00 in0.0 mm
01:30 AM 51.1°F10.6°C 46.5°F8.1°C 84% Calm Calm -- 29.98 in1015.2 mb 0.00 in0.0 mm 0.00 in/hr0.0 mm/hr 0.00 in0.0 mm
01:40 AM 50.8°F10.4°C 46.5°F8.1°C 85% Calm Calm -- 29.98 in1015.2 mb 0.00 in0.0 mm 0.00 in/hr0.0 mm/hr 0.00 in0.0 mm
02:00 AM 50.2°F10.1°C 46.2°F7.9°C 86% 0.4 mph SSW0.6 kmh SSW 1.0 mph1.6 kmh 29.99 in1015.6 mb 0.00 in0.0 mm 0.00 in/hr0.0 mm/hr 0.00 in0.0 mm
02:10 AM 50.1°F10.1°C 46.1°F7.8°C 86% 1.5 mph SSW2.4 kmh SSW 2.0 mph3.2 kmh 29.99 in1015.6 mb 0.00 in0.0 mm 0.00 in/hr0.0 mm/hr 0.00 in0.0 mm
02:20 AM 50.2°F10.1°C 46.2°F7.9°C 86% 0.6 mph SSW1.0 kmh SSW 1.0 mph1.6 kmh 29.99 in1015.6 mb 0.00 in0.0 mm 0.00 in/hr0.0 mm/hr 0.00 in0.0 mm
02:30 AM 49.6°F9.8°C 45.3°F7.4°C 85% Calm Calm -- 29.99 in1015.6 mb 0.00 in0.0 mm 0.00 in/hr0.0 mm/hr 0.00 in0.0 mm
02:40 AM 49.4°F9.7°C 45.4°F7.4°C 86% Calm Calm -- 29.99 in1015.6 mb 0.00 in0.0 mm 0.00 in/hr0.0 mm/hr 0.00 in0.0 mm
02:50 AM 48.9°F9.4°C 45.2°F7.3°C 87% Calm Calm 1.0 mph1.6 kmh 29.99 in1015.6 mb 0.00 in0.0 mm 0.00 in/hr0.0 mm/hr 0.00 in0.0 mm
03:00 AM 48.9°F9.4°C 45.2°F7.3°C 87% 0.2 mph SSW0.3 kmh SSW 1.0 mph1.6 kmh 29.99 in1015.6 mb 0.00 in0.0 mm 0.00 in/hr0.0 mm/hr 0.00 in0.0 mm
03:10 AM 48.6°F9.2°C 44.9°F7.2°C 87% Calm Calm -- 29.99 in1015.6 mb 0.00 in0.0 mm 0.00 in/hr0.0 mm/hr 0.00 in0.0 mm
03:20 AM 48.2°F9.0°C 44.8°F7.1°C 88% 0.1 mph SSW0.2 kmh SSW 1.0 mph1.6 kmh 30.00 in1015.9 mb 0.00 in0.0 mm 0.00 in/hr0.0 mm/hr 0.00 in0.0 mm
03:30 AM 48.2°F9.0°C 44.2°F6.8°C 86% Calm Calm 1.0 mph1.6 kmh 30.00 in1015.9 mb 0.00 in0.0 mm 0.00 in/hr0.0 mm/hr 0.00 in0.0 mm
03:40 AM 48.0°F8.9°C 44.1°F6.7°C 86% Calm Calm -- 30.01 in1016.3 mb 0.00 in0.0 mm 0.00 in/hr0.0 mm/hr 0.00 in0.0 mm
04:00 AM 47.3°F8.5°C 43.3°F6.3°C 86% Calm Calm -- 30.01 in1016.3 mb 0.00 in0.0 mm 0.00 in/hr0.0 mm/hr 0.00 in0.0 mm
04:10 AM 47.1°F8.4°C 43.1°F6.2°C 86% 0.2 mph SW0.3 kmh SW 1.0 mph1.6 kmh 30.01 in1016.3 mb 0.00 in0.0 mm 0.00 in/hr0.0 mm/hr 0.00 in0.0 mm
04:20 AM 47.0°F8.3°C 43.1°F6.2°C 86% Calm Calm -- 30.01 in1016.3 mb 0.00 in0.0 mm 0.00 in/hr0.0 mm/hr 0.00 in0.0 mm
04:30 AM 46.5°F8.1°C 43.1°F6.2°C 88% Calm Calm -- 30.01 in1016.3 mb 0.00 in0.0 mm 0.00 in/hr0.0 mm/hr 0.00 in0.0 mm
04:40 AM 46.1°F7.8°C 43.0°F6.1°C 89% 0.1 mph SW0.2 kmh SW -- 30.02 in1016.6 mb 0.00 in0.0 mm 0.00 in/hr0.0 mm/hr 0.00 in0.0 mm
04:50 AM 45.4°F7.4°C 42.4°F5.8°C 89% Calm Calm -- 30.02 in1016.6 mb 0.00 in0.0 mm 0.00 in/hr0.0 mm/hr 0.00 in0.0 mm
05:00 AM 45.4°F7.4°C 42.6°F5.9°C 90% Calm Calm -- 30.03 in1016.9 mb 0.00 in0.0 mm 0.00 in/hr0.0 mm/hr 0.00 in0.0 mm
05:10 AM 45.1°F7.3°C 42.6°F5.9°C 91% 0.7 mph SW1.1 kmh SW 2.0 mph3.2 kmh 30.03 in1016.9 mb 0.00 in0.0 mm 0.00 in/hr0.0 mm/hr 0.00 in0.0 mm
05:20 AM 44.4°F6.9°C 41.9°F5.5°C 91% 2.3 mph SW3.7 kmh SW 3.0 mph4.8 kmh 30.04 in1017.3 mb 0.00 in0.0 mm 0.00 in/hr0.0 mm/hr 0.00 in0.0 mm
05:30 AM 45.1°F7.3°C 42.9°F6.1°C 92% 1.3 mph SW2.1 kmh SW 2.0 mph3.2 kmh 30.04 in1017.3 mb 0.00 in0.0 mm 0.00 in/hr0.0 mm/hr 0.00 in0.0 mm
05:40 AM 45.7°F7.6°C 43.6°F6.4°C 92% 0.6 mph SW1.0 kmh SW 1.0 mph1.6 kmh 30.04 in1017.3 mb 0.00 in0.0 mm 0.00 in/hr0.0 mm/hr 0.00 in0.0 mm
05:50 AM 46.8°F8.2°C 44.3°F6.8°C 91% Calm Calm -- 30.04 in1017.3 mb 0.00 in0.0 mm 0.00 in/hr0.0 mm/hr 0.00 in0.0 mm
06:00 AM 47.7°F8.7°C 44.9°F7.2°C 90% 0.1 mph SW0.2 kmh SW 1.0 mph1.6 kmh 30.04 in1017.3 mb 0.00 in0.0 mm 0.00 in/hr0.0 mm/hr 0.00 in0.0 mm
06:10 AM 48.5°F9.2°C 45.4°F7.4°C 89% 0.1 mph SW0.2 kmh SW 1.0 mph1.6 kmh 30.04 in1017.3 mb 0.00 in0.0 mm 0.00 in/hr0.0 mm/hr 0.00 in0.0 mm
06:20 AM 49.1°F9.5°C 45.7°F7.6°C 88% Calm Calm -- 30.05 in1017.6 mb 0.00 in0.0 mm 0.00 in/hr0.0 mm/hr 0.00 in0.0 mm
06:30 AM 49.5°F9.7°C 45.8°F7.7°C 87% 0.2 mph SW0.3 kmh SW 2.0 mph3.2 kmh 30.05 in1017.6 mb 0.00 in0.0 mm 0.00 in/hr0.0 mm/hr 0.00 in0.0 mm
06:40 AM 49.8°F9.9°C 45.8°F7.7°C 86% 1.1 mph WSW1.8 kmh WSW 2.0 mph3.2 kmh 30.06 in1017.9 mb 0.00 in0.0 mm 0.00 in/hr0.0 mm/hr 0.00 in0.0 mm
06:50 AM 49.8°F9.9°C 45.2°F7.3°C 84% 0.9 mph SSW1.4 kmh SSW 2.0 mph3.2 kmh 30.06 in1017.9 mb 0.00 in0.0 mm 0.00 in/hr0.0 mm/hr 0.00 in0.0 mm
07:00 AM 50.1°F10.1°C 45.8°F7.7°C 85% 0.6 mph SW1.0 kmh SW 1.0 mph1.6 kmh 30.07 in1018.3 mb 0.00 in0.0 mm 0.00 in/hr0.0 mm/hr 0.00 in0.0 mm
07:10 AM 50.4°F10.2°C 45.1°F7.3°C 82% Calm Calm -- 30.07 in1018.3 mb 0.00 in0.0 mm 0.00 in/hr0.0 mm/hr 0.00 in0.0 mm
07:20 AM 50.7°F10.4°C 46.1°F7.8°C 84% Calm Calm -- 30.07 in1018.3 mb 0.00 in0.0 mm 0.00 in/hr0.0 mm/hr 0.00 in0.0 mm
07:40 AM 51.4°F10.8°C 45.4°F7.4°C 80% 1.2 mph SW1.9 kmh SW 3.0 mph4.8 kmh 30.07 in1018.3 mb 0.00 in0.0 mm 0.00 in/hr0.0 mm/hr 0.00 in0.0 mm
07:50 AM 51.9°F11.1°C 44.9°F7.2°C 77% 0.3 mph SSW0.5 kmh SSW 1.0 mph1.6 kmh 30.07 in1018.3 mb 0.00 in0.0 mm 0.00 in/hr0.0 mm/hr 0.00 in0.0 mm
08:00 AM 52.2°F11.2°C 44.9°F7.2°C 76% 0.2 mph SSW0.3 kmh SSW 1.0 mph1.6 kmh 30.08 in1018.6 mb 0.00 in0.0 mm 0.00 in/hr0.0 mm/hr 0.00 in0.0 mm
08:10 AM 52.5°F11.4°C 46.5°F8.1°C 80% Calm Calm -- 30.08 in1018.6 mb 0.00 in0.0 mm 0.00 in/hr0.0 mm/hr 0.00 in0.0 mm
08:20 AM 52.5°F11.4°C 46.2°F7.9°C 79% 0.8 mph SW1.3 kmh SW 2.0 mph3.2 kmh 30.09 in1019.0 mb 0.00 in0.0 mm 0.00 in/hr0.0 mm/hr 0.00 in0.0 mm
08:30 AM 52.8°F11.6°C 46.5°F8.1°C 79% 1.0 mph WSW1.6 kmh WSW 2.0 mph3.2 kmh 30.09 in1019.0 mb 0.00 in0.0 mm 0.00 in/hr0.0 mm/hr 0.00 in0.0 mm
08:40 AM 52.8°F11.6°C 46.5°F8.1°C 79% 1.2 mph WSW1.9 kmh WSW 2.0 mph3.2 kmh 30.09 in1019.0 mb 0.00 in0.0 mm 0.00 in/hr0.0 mm/hr 0.00 in0.0 mm
08:50 AM 52.9°F11.6°C 45.5°F7.5°C 76% 1.3 mph WSW2.1 kmh WSW 2.0 mph3.2 kmh 30.09 in1019.0 mb 0.00 in0.0 mm 0.00 in/hr0.0 mm/hr 0.00 in0.0 mm
09:00 AM 53.1°F11.7°C 45.7°F7.6°C 76% 2.7 mph WSW4.3 kmh WSW 3.0 mph4.8 kmh 30.09 in1019.0 mb 0.00 in0.0 mm 0.00 in/hr0.0 mm/hr 0.00 in0.0 mm
09:10 AM 52.8°F11.6°C 45.4°F7.4°C 76% 0.4 mph W0.6 kmh W 1.0 mph1.6 kmh 30.09 in1019.0 mb 0.00 in0.0 mm 0.00 in/hr0.0 mm/hr 0.00 in0.0 mm
09:20 AM 53.0°F11.7°C 46.0°F7.8°C 77% 1.9 mph W3.1 kmh W 3.0 mph4.8 kmh 30.10 in1019.3 mb 0.00 in0.0 mm 0.00 in/hr0.0 mm/hr 0.00 in0.0 mm
09:30 AM 53.2°F11.8°C 45.4°F7.4°C 75% 1.0 mph W1.6 kmh W 2.0 mph3.2 kmh 30.10 in1019.3 mb 0.00 in0.0 mm 0.00 in/hr0.0 mm/hr 0.00 in0.0 mm
09:40 AM 53.2°F11.8°C 45.8°F7.7°C 76% 1.0 mph W1.6 kmh W 3.0 mph4.8 kmh 30.10 in1019.3 mb 0.00 in0.0 mm 0.00 in/hr0.0 mm/hr 0.00 in0.0 mm
09:50 AM 53.3°F11.8°C 45.6°F7.6°C 75% 3.3 mph WSW5.3 kmh WSW 4.0 mph6.4 kmh 30.10 in1019.3 mb 0.00 in0.0 mm 0.00 in/hr0.0 mm/hr 0.00 in0.0 mm
10:00 AM 53.6°F12.0°C 45.8°F7.7°C 75% 2.7 mph SW4.3 kmh SW 3.0 mph4.8 kmh 30.10 in1019.3 mb 0.00 in0.0 mm 0.00 in/hr0.0 mm/hr 0.00 in0.0 mm
10:10 AM 53.8°F12.1°C 46.1°F7.8°C 75% 0.3 mph SW0.5 kmh SW 1.0 mph1.6 kmh 30.10 in1019.3 mb 0.00 in0.0 mm 0.00 in/hr0.0 mm/hr 0.00 in0.0 mm
10:20 AM 53.6°F12.0°C 45.9°F7.7°C 75% 1.0 mph S1.6 kmh S 2.0 mph3.2 kmh 30.10 in1019.3 mb 0.00 in0.0 mm 0.00 in/hr0.0 mm/hr 0.00 in0.0 mm
10:30 AM 54.6°F12.6°C 47.5°F8.6°C 77% 1.8 mph WSW2.9 kmh WSW 3.0 mph4.8 kmh 30.10 in1019.3 mb 0.00 in0.0 mm 0.00 in/hr0.0 mm/hr 0.00 in0.0 mm
10:40 AM 54.4°F12.4°C 45.6°F7.6°C 72% 0.2 mph S0.3 kmh S 1.0 mph1.6 kmh 30.11 in1019.6 mb 0.00 in0.0 mm 0.00 in/hr0.0 mm/hr 0.00 in0.0 mm
10:50 AM 54.6°F12.6°C 46.5°F8.1°C 74% 1.3 mph SW2.1 kmh SW 1.0 mph1.6 kmh 30.10 in1019.3 mb 0.00 in0.0 mm 0.00 in/hr0.0 mm/hr 0.00 in0.0 mm
11:00 AM 54.2°F12.3°C 45.7°F7.6°C 73% 0.1 mph S0.2 kmh S -- 30.10 in1019.3 mb 0.00 in0.0 mm 0.00 in/hr0.0 mm/hr 0.00 in0.0 mm
11:10 AM 55.4°F13.0°C 46.9°F8.3°C 73% 2.9 mph WSW4.7 kmh WSW 3.0 mph4.8 kmh 30.11 in1019.6 mb 0.00 in0.0 mm 0.00 in/hr0.0 mm/hr 0.00 in0.0 mm
11:20 AM 56.1°F13.4°C 46.5°F8.1°C 70% 1.5 mph SW2.4 kmh SW 4.0 mph6.4 kmh 30.11 in1019.6 mb 0.00 in0.0 mm 0.00 in/hr0.0 mm/hr 0.00 in0.0 mm
11:30 AM 55.7°F13.2°C 46.4°F8.0°C 71% 1.3 mph WSW2.1 kmh WSW 4.0 mph6.4 kmh 30.10 in1019.3 mb 0.00 in0.0 mm 0.00 in/hr0.0 mm/hr 0.00 in0.0 mm
11:40 AM 57.5°F14.2°C 47.0°F8.3°C 68% 0.4 mph NW0.6 kmh NW 2.0 mph3.2 kmh 30.10 in1019.3 mb 0.00 in0.0 mm 0.00 in/hr0.0 mm/hr 0.00 in0.0 mm
11:50 AM 57.9°F14.4°C 48.2°F9.0°C 70% 0.2 mph S0.3 kmh S 1.0 mph1.6 kmh 30.09 in1019.0 mb 0.00 in0.0 mm 0.00 in/hr0.0 mm/hr 0.00 in0.0 mm
12:00 PM 56.8°F13.8°C 47.5°F8.6°C 71% 2.4 mph WNW3.9 kmh WNW 6.0 mph9.7 kmh 30.10 in1019.3 mb 0.00 in0.0 mm 0.00 in/hr0.0 mm/hr 0.00 in0.0 mm
12:10 PM 57.6°F14.2°C 47.1°F8.4°C 68% 2.7 mph NW4.3 kmh NW 4.0 mph6.4 kmh 30.09 in1019.0 mb 0.00 in0.0 mm 0.00 in/hr0.0 mm/hr 0.00 in0.0 mm
12:20 PM 58.3°F14.6°C 47.0°F8.3°C 66% 2.3 mph N3.7 kmh N 5.0 mph8.0 kmh 30.09 in1019.0 mb 0.00 in0.0 mm 0.00 in/hr0.0 mm/hr 0.00 in0.0 mm
12:30 PM 59.1°F15.1°C 48.9°F9.4°C 69% 1.0 mph S1.6 kmh S 2.0 mph3.2 kmh 30.09 in1019.0 mb 0.00 in0.0 mm 0.00 in/hr0.0 mm/hr 0.00 in0.0 mm
12:40 PM 60.4°F15.8°C 47.7°F8.7°C 63% 0.7 mph NNE1.1 kmh NNE 1.0 mph1.6 kmh 30.09 in1019.0 mb 0.00 in0.0 mm 0.00 in/hr0.0 mm/hr 0.00 in0.0 mm
12:50 PM 58.8°F14.9°C 47.9°F8.8°C 67% 1.6 mph SSW2.6 kmh SSW 2.0 mph3.2 kmh 30.09 in1019.0 mb 0.00 in0.0 mm 0.00 in/hr0.0 mm/hr 0.00 in0.0 mm
01:00 PM 59.5°F15.3°C 47.7°F8.7°C 65% 1.5 mph SE2.4 kmh SE 2.0 mph3.2 kmh 30.09 in1019.0 mb 0.00 in0.0 mm 0.00 in/hr0.0 mm/hr 0.00 in0.0 mm
01:10 PM 60.2°F15.7°C 47.5°F8.6°C 63% 2.3 mph W3.7 kmh W 3.0 mph4.8 kmh 30.09 in1019.0 mb 0.00 in0.0 mm 0.00 in/hr0.0 mm/hr 0.00 in0.0 mm
01:20 PM 59.6°F15.3°C 47.4°F8.6°C 64% 2.7 mph W4.3 kmh W 6.0 mph9.7 kmh 30.09 in1019.0 mb 0.00 in0.0 mm 0.00 in/hr0.0 mm/hr 0.00 in0.0 mm
01:30 PM 59.8°F15.4°C 48.4°F9.1°C 66% 2.3 mph SSE3.7 kmh SSE 7.0 mph11.3 kmh 30.09 in1019.0 mb 0.00 in0.0 mm 0.00 in/hr0.0 mm/hr 0.00 in0.0 mm
01:40 PM 61.2°F16.2°C 48.1°F8.9°C 62% 2.0 mph S3.2 kmh S 5.0 mph8.0 kmh 30.09 in1019.0 mb 0.00 in0.0 mm 0.00 in/hr0.0 mm/hr 0.00 in0.0 mm
01:50 PM 62.2°F16.8°C 47.7°F8.7°C 59% 2.5 mph S4.0 kmh S 2.0 mph3.2 kmh 30.08 in1018.6 mb 0.00 in0.0 mm 0.00 in/hr0.0 mm/hr 0.00 in0.0 mm
02:00 PM 62.4°F16.9°C 47.9°F8.8°C 59% 3.1 mph W5.0 kmh W 5.0 mph8.0 kmh 30.07 in1018.3 mb 0.00 in0.0 mm 0.00 in/hr0.0 mm/hr 0.00 in0.0 mm
02:10 PM 64.2°F17.9°C 48.7°F9.3°C 57% 3.2 mph S5.1 kmh S 4.0 mph6.4 kmh 30.07 in1018.3 mb 0.00 in0.0 mm 0.00 in/hr0.0 mm/hr 0.00 in0.0 mm
02:20 PM 63.2°F17.3°C 46.8°F8.2°C 55% 4.1 mph WSW6.6 kmh WSW 5.0 mph8.0 kmh 30.07 in1018.3 mb 0.00 in0.0 mm 0.00 in/hr0.0 mm/hr 0.00 in0.0 mm
02:30 PM 64.5°F18.1°C 49.4°F9.7°C 58% 2.7 mph N4.3 kmh N 5.0 mph8.0 kmh 30.07 in1018.3 mb 0.00 in0.0 mm 0.00 in/hr0.0 mm/hr 0.00 in0.0 mm
02:40 PM 63.9°F17.7°C 46.9°F8.3°C 54% 3.6 mph NW5.8 kmh NW 4.0 mph6.4 kmh 30.07 in1018.3 mb 0.00 in0.0 mm 0.00 in/hr0.0 mm/hr 0.00 in0.0 mm
02:50 PM 64.1°F17.8°C 48.1°F8.9°C 56% 3.3 mph WSW5.3 kmh WSW 10.0 mph16.1 kmh 30.07 in1018.3 mb 0.00 in0.0 mm 0.00 in/hr0.0 mm/hr 0.00 in0.0 mm
03:00 PM 64.6°F18.1°C 47.1°F8.4°C 53% 5.4 mph WNW8.7 kmh WNW 9.0 mph14.5 kmh 30.07 in1018.3 mb 0.00 in0.0 mm 0.00 in/hr0.0 mm/hr 0.00 in0.0 mm
03:10 PM 64.7°F18.2°C 47.7°F8.7°C 54% 4.0 mph WSW6.4 kmh WSW 8.0 mph12.9 kmh 30.07 in1018.3 mb 0.00 in0.0 mm 0.00 in/hr0.0 mm/hr 0.00 in0.0 mm
03:20 PM 64.5°F18.1°C 47.0°F8.3°C 53% 5.0 mph W8.0 kmh W 9.0 mph14.5 kmh 30.07 in1018.3 mb 0.00 in0.0 mm 0.00 in/hr0.0 mm/hr 0.00 in0.0 mm
03:30 PM 63.7°F17.6°C 45.2°F7.3°C 51% 3.9 mph WNW6.3 kmh WNW 6.0 mph9.7 kmh 30.08 in1018.6 mb 0.00 in0.0 mm 0.00 in/hr0.0 mm/hr 0.00 in0.0 mm
03:40 PM 64.4°F18.0°C 44.8°F7.1°C 49% 6.8 mph 10.9 kmh 10.0 mph16.1 kmh 30.07 in1018.3 mb 0.00 in0.0 mm 0.00 in/hr0.0 mm/hr 0.00 in0.0 mm
03:50 PM 63.2°F17.3°C 44.8°F7.1°C 51% 5.9 mph NW9.5 kmh NW 11.0 mph17.7 kmh 30.08 in1018.6 mb 0.00 in0.0 mm 0.00 in/hr0.0 mm/hr 0.00 in0.0 mm
04:00 PM 63.9°F17.7°C 44.4°F6.9°C 49% 7.2 mph N11.6 kmh N 11.0 mph17.7 kmh 30.08 in1018.6 mb 0.00 in0.0 mm 0.00 in/hr0.0 mm/hr 0.00 in0.0 mm
04:10 PM 63.7°F17.6°C 44.2°F6.8°C 49% 8.3 mph 13.4 kmh 12.0 mph19.3 kmh 30.08 in1018.6 mb 0.00 in0.0 mm 0.00 in/hr0.0 mm/hr 0.00 in0.0 mm
04:20 PM 62.9°F17.2°C 44.5°F6.9°C 51% 7.5 mph WNW12.1 kmh WNW 13.0 mph20.9 kmh 30.08 in1018.6 mb 0.00 in0.0 mm 0.00 in/hr0.0 mm/hr 0.00 in0.0 mm
04:30 PM 62.4°F16.9°C 44.5°F6.9°C 52% 10.8 mph NNW17.4 kmh NNW 15.0 mph24.1 kmh 30.08 in1018.6 mb 0.00 in0.0 mm 0.00 in/hr0.0 mm/hr 0.00 in0.0 mm
04:40 PM 62.4°F16.9°C 44.5°F6.9°C 52% 7.5 mph N12.1 kmh N 11.0 mph17.7 kmh 30.08 in1018.6 mb 0.00 in0.0 mm 0.00 in/hr0.0 mm/hr 0.00 in0.0 mm
04:50 PM 63.1°F17.3°C 43.6°F6.4°C 49% 8.7 mph NNW14.0 kmh NNW 15.0 mph24.1 kmh 30.08 in1018.6 mb 0.00 in0.0 mm 0.00 in/hr0.0 mm/hr 0.00 in0.0 mm
05:00 PM 62.3°F16.8°C 42.4°F5.8°C 48% 14.1 mph N22.7 kmh N 18.0 mph29.0 kmh 30.09 in1019.0 mb 0.00 in0.0 mm 0.00 in/hr0.0 mm/hr 0.00 in0.0 mm
05:10 PM 62.2°F16.8°C 42.2°F5.7°C 48% 9.8 mph NNW15.8 kmh NNW 14.0 mph22.5 kmh 30.08 in1018.6 mb 0.00 in0.0 mm 0.00 in/hr0.0 mm/hr 0.00 in0.0 mm
05:20 PM 62.0°F16.7°C 41.5°F5.3°C 47% 11.0 mph N17.7 kmh N 15.0 mph24.1 kmh 30.09 in1019.0 mb 0.00 in0.0 mm 0.00 in/hr0.0 mm/hr 0.00 in0.0 mm
05:30 PM 60.9°F16.1°C 41.1°F5.1°C 48% 9.5 mph N15.3 kmh N 15.0 mph24.1 kmh 30.09 in1019.0 mb 0.00 in0.0 mm 0.00 in/hr0.0 mm/hr 0.00 in0.0 mm
05:40 PM 61.0°F16.1°C 40.6°F4.8°C 47% 8.3 mph N13.4 kmh N 15.0 mph24.1 kmh 30.10 in1019.3 mb 0.00 in0.0 mm 0.00 in/hr0.0 mm/hr 0.00 in0.0 mm
05:50 PM 60.7°F15.9°C 40.3°F4.6°C 47% 7.7 mph NW12.4 kmh NW 13.0 mph20.9 kmh 30.10 in1019.3 mb 0.00 in0.0 mm 0.00 in/hr0.0 mm/hr 0.00 in0.0 mm
06:00 PM 60.7°F15.9°C 39.2°F4.0°C 45% 8.8 mph NNW14.2 kmh NNW 11.0 mph17.7 kmh 30.10 in1019.3 mb 0.00 in0.0 mm 0.00 in/hr0.0 mm/hr 0.00 in0.0 mm
06:10 PM 60.4°F15.8°C 38.9°F3.8°C 45% 6.5 mph NW10.5 kmh NW 14.0 mph22.5 kmh 30.09 in1019.0 mb 0.00 in0.0 mm 0.00 in/hr0.0 mm/hr 0.00 in0.0 mm
06:20 PM 59.7°F15.4°C 38.8°F3.8°C 46% 7.7 mph NW12.4 kmh NW 14.0 mph22.5 kmh 30.09 in1019.0 mb 0.00 in0.0 mm 0.00 in/hr0.0 mm/hr 0.00 in0.0 mm
06:30 PM 59.9°F15.5°C 38.5°F3.6°C 45% 7.5 mph 12.1 kmh 9.0 mph14.5 kmh 30.09 in1019.0 mb 0.00 in0.0 mm 0.00 in/hr0.0 mm/hr 0.00 in0.0 mm
06:40 PM 59.8°F15.4°C 37.8°F3.2°C 44% 7.7 mph N12.4 kmh N 11.0 mph17.7 kmh 30.09 in1019.0 mb 0.00 in0.0 mm 0.00 in/hr0.0 mm/hr 0.00 in0.0 mm
06:50 PM 58.8°F14.9°C 36.3°F2.4°C 43% 9.6 mph 15.4 kmh 14.0 mph22.5 kmh 30.10 in1019.3 mb 0.00 in0.0 mm 0.00 in/hr0.0 mm/hr 0.00 in0.0 mm
07:00 PM 58.1°F14.5°C 36.9°F2.7°C 45% 8.5 mph 13.7 kmh 12.0 mph19.3 kmh 30.10 in1019.3 mb 0.00 in0.0 mm 0.00 in/hr0.0 mm/hr 0.00 in0.0 mm
07:10 PM 58.1°F14.5°C 36.9°F2.7°C 45% 4.5 mph NNW7.2 kmh NNW 7.0 mph11.3 kmh 30.11 in1019.6 mb 0.00 in0.0 mm 0.00 in/hr0.0 mm/hr 0.00 in0.0 mm
07:20 PM 57.6°F14.2°C 37.0°F2.8°C 46% 4.2 mph NNW6.8 kmh NNW 5.0 mph8.0 kmh 30.11 in1019.6 mb 0.00 in0.0 mm 0.00 in/hr0.0 mm/hr 0.00 in0.0 mm
07:30 PM 57.1°F13.9°C 34.8°F1.6°C 43% 5.0 mph WNW8.0 kmh WNW 9.0 mph14.5 kmh 30.11 in1019.6 mb 0.00 in0.0 mm 0.00 in/hr0.0 mm/hr 0.00 in0.0 mm
07:40 PM 56.5°F13.6°C 35.4°F1.9°C 45% 5.5 mph NW8.9 kmh NW 10.0 mph16.1 kmh 30.11 in1019.6 mb 0.00 in0.0 mm 0.00 in/hr0.0 mm/hr 0.00 in0.0 mm
07:50 PM 55.8°F13.2°C 34.2°F1.2°C 44% 7.3 mph W11.7 kmh W 12.0 mph19.3 kmh 30.11 in1019.6 mb 0.00 in0.0 mm 0.00 in/hr0.0 mm/hr 0.00 in0.0 mm
08:00 PM 55.1°F12.8°C 33.6°F0.9°C 44% 8.7 mph N14.0 kmh N 14.0 mph22.5 kmh 30.11 in1019.6 mb 0.00 in0.0 mm 0.00 in/hr0.0 mm/hr 0.00 in0.0 mm
08:10 PM 54.4°F12.4°C 33.5°F0.8°C 45% 5.1 mph NW8.2 kmh NW 9.0 mph14.5 kmh 30.12 in1020.0 mb 0.00 in0.0 mm 0.00 in/hr0.0 mm/hr 0.00 in0.0 mm
08:20 PM 53.2°F11.8°C 32.4°F0.2°C 45% 4.0 mph N6.4 kmh N 8.0 mph12.9 kmh 30.13 in1020.3 mb 0.00 in0.0 mm 0.00 in/hr0.0 mm/hr 0.00 in0.0 mm
08:30 PM 52.4°F11.3°C 31.6°F-0.2°C 45% 3.1 mph NW5.0 kmh NW 5.0 mph8.0 kmh 30.13 in1020.3 mb 0.00 in0.0 mm 0.00 in/hr0.0 mm/hr 0.00 in0.0 mm
08:40 PM 51.5°F10.8°C 31.9°F-0.1°C 47% 3.5 mph NW5.6 kmh NW 6.0 mph9.7 kmh 30.15 in1021.0 mb 0.00 in0.0 mm 0.00 in/hr0.0 mm/hr 0.00 in0.0 mm
08:50 PM 51.0°F10.6°C 30.4°F-0.9°C 45% 2.6 mph NW4.2 kmh NW 6.0 mph9.7 kmh 30.15 in1021.0 mb 0.00 in0.0 mm 0.00 in/hr0.0 mm/hr 0.00 in0.0 mm
09:00 PM 50.4°F10.2°C 30.9°F-0.6°C 47% 1.5 mph NW2.4 kmh NW 2.0 mph3.2 kmh 30.16 in1021.3 mb 0.00 in0.0 mm 0.00 in/hr0.0 mm/hr 0.00 in0.0 mm
09:10 PM 49.6°F9.8°C 31.2°F-0.4°C 49% 1.9 mph WNW3.1 kmh WNW 3.0 mph4.8 kmh 30.17 in1021.7 mb 0.00 in0.0 mm 0.00 in/hr0.0 mm/hr 0.00 in0.0 mm
09:20 PM 49.4°F9.7°C 30.5°F-0.8°C 48% 2.1 mph NNW3.4 kmh NNW 4.0 mph6.4 kmh 30.17 in1021.7 mb 0.00 in0.0 mm 0.00 in/hr0.0 mm/hr 0.00 in0.0 mm
09:30 PM 48.9°F9.4°C 31.0°F-0.6°C 50% 2.0 mph NW3.2 kmh NW 3.0 mph4.8 kmh 30.19 in1022.4 mb 0.00 in0.0 mm 0.00 in/hr0.0 mm/hr 0.00 in0.0 mm
09:40 PM 48.6°F9.2°C 31.3°F-0.4°C 51% 3.8 mph NW6.1 kmh NW 5.0 mph8.0 kmh 30.19 in1022.4 mb 0.00 in0.0 mm 0.00 in/hr0.0 mm/hr 0.00 in0.0 mm
09:50 PM 48.6°F9.2°C 30.8°F-0.7°C 50% 2.4 mph WNW3.9 kmh WNW 3.0 mph4.8 kmh 30.20 in1022.7 mb 0.00 in0.0 mm 0.00 in/hr0.0 mm/hr 0.00 in0.0 mm
10:00 PM 48.0°F8.9°C 31.7°F-0.2°C 53% 0.3 mph NW0.5 kmh NW 1.0 mph1.6 kmh 30.20 in1022.7 mb 0.00 in0.0 mm 0.00 in/hr0.0 mm/hr 0.00 in0.0 mm
10:10 PM 47.3°F8.5°C 32.3°F0.2°C 56% 0.4 mph NW0.6 kmh NW 1.0 mph1.6 kmh 30.21 in1023.0 mb 0.00 in0.0 mm 0.00 in/hr0.0 mm/hr 0.00 in0.0 mm
10:20 PM 46.2°F7.9°C 31.8°F-0.1°C 57% 2.3 mph WSW3.7 kmh WSW 3.0 mph4.8 kmh 30.21 in1023.0 mb 0.00 in0.0 mm 0.00 in/hr0.0 mm/hr 0.00 in0.0 mm
10:30 PM 45.1°F7.3°C 32.1°F0.1°C 60% 1.9 mph SW3.1 kmh SW 3.0 mph4.8 kmh 30.22 in1023.4 mb 0.00 in0.0 mm 0.00 in/hr0.0 mm/hr 0.00 in0.0 mm
10:40 PM 44.6°F7.0°C 32.4°F0.2°C 62% 1.6 mph SW2.6 kmh SW 2.0 mph3.2 kmh 30.22 in1023.4 mb 0.00 in0.0 mm 0.00 in/hr0.0 mm/hr 0.00 in0.0 mm
10:50 PM 44.6°F7.0°C 32.4°F0.2°C 62% 1.0 mph WSW1.6 kmh WSW 2.0 mph3.2 kmh 30.22 in1023.4 mb 0.00 in0.0 mm 0.00 in/hr0.0 mm/hr 0.00 in0.0 mm
11:00 PM 44.3°F6.8°C 32.5°F0.3°C 63% 2.3 mph WSW3.7 kmh WSW 3.0 mph4.8 kmh 30.23 in1023.7 mb 0.00 in0.0 mm 0.00 in/hr0.0 mm/hr 0.00 in0.0 mm
11:10 PM 44.5°F6.9°C 32.7°F0.4°C 63% 0.8 mph WSW1.3 kmh WSW 2.0 mph3.2 kmh 30.22 in1023.4 mb 0.00 in0.0 mm 0.00 in/hr0.0 mm/hr 0.00 in0.0 mm
11:20 PM 44.6°F7.0°C 32.3°F0.2°C 62% 3.3 mph W5.3 kmh W 4.0 mph6.4 kmh 30.22 in1023.4 mb 0.00 in0.0 mm 0.00 in/hr0.0 mm/hr 0.00 in0.0 mm
11:30 PM 44.6°F7.0°C 32.4°F0.2°C 62% 1.4 mph W2.3 kmh W 3.0 mph4.8 kmh 30.22 in1023.4 mb 0.00 in0.0 mm 0.00 in/hr0.0 mm/hr 0.00 in0.0 mm
11:40 PM 43.9°F6.6°C 32.5°F0.3°C 64% 2.0 mph W3.2 kmh W 3.0 mph4.8 kmh 30.22 in1023.4 mb 0.00 in0.0 mm 0.00 in/hr0.0 mm/hr 0.00 in0.0 mm
11:50 PM 43.3°F6.3°C 32.3°F0.2°C 65% 0.8 mph W1.3 kmh W 2.0 mph3.2 kmh 30.23 in1023.7 mb 0.00 in0.0 mm 0.00 in/hr0.0 mm/hr 0.00 in0.0 mm